sensor_id;sensor_type;location;lat;lon;timestamp;P1;durP1;ratioP1;P2;durP2;ratioP2
1999;SDS011;1001;48.87406500;9.59633600;2023-07-08T00:01:44;6.30;;;5.33;;
1999;SDS011;1001;48.87406500;9.59633600;2023-07-08T00:04:11;7.10;;;5.70;;
1999;SDS011;1001;48.87406500;9.59633600;2023-07-08T00:06:37;6.70;;;5.40;;
1999;SDS011;1001;48.87406500;9.59633600;2023-07-08T00:09:07;7.63;;;6.50;;
1999;SDS011;1001;48.87406500;9.59633600;2023-07-08T00:11:37;5.73;;;4.63;;
1999;SDS011;1001;48.87406500;9.59633600;2023-07-08T00:14:04;7.37;;;4.97;;
1999;SDS011;1001;48.87406500;9.59633600;2023-07-08T00:16:31;6.80;;;5.07;;
1999;SDS011;1001;48.87406500;9.59633600;2023-07-08T00:18:57;9.90;;;6.20;;
1999;SDS011;1001;48.87406500;9.59633600;2023-07-08T00:21:24;8.10;;;5.40;;
1999;SDS011;1001;48.87406500;9.59633600;2023-07-08T00:23:50;6.30;;;4.80;;
1999;SDS011;1001;48.87406500;9.59633600;2023-07-08T00:26:18;6.10;;;4.60;;
1999;SDS011;1001;48.87406500;9.59633600;2023-07-08T00:28:50;6.47;;;5.37;;
1999;SDS011;1001;48.87406500;9.59633600;2023-07-08T00:31:17;6.93;;;5.90;;
1999;SDS011;1001;48.87406500;9.59633600;2023-07-08T00:33:48;10.43;;;5.73;;
1999;SDS011;1001;48.87406500;9.59633600;2023-07-08T00:36:15;7.77;;;5.20;;
1999;SDS011;1001;48.87406500;9.59633600;2023-07-08T00:38:43;11.83;;;6.50;;
1999;SDS011;1001;48.87406500;9.59633600;2023-07-08T00:41:11;8.03;;;5.87;;
1999;SDS011;1001;48.87406500;9.59633600;2023-07-08T00:43:41;8.53;;;5.90;;
1999;SDS011;1001;48.87406500;9.59633600;2023-07-08T00:46:15;8.10;;;5.43;;
1999;SDS011;1001;48.87406500;9.59633600;2023-07-08T00:48:50;9.13;;;5.60;;
1999;SDS011;1001;48.87406500;9.59633600;2023-07-08T00:51:19;8.50;;;5.60;;
1999;SDS011;1001;48.87406500;9.59633600;2023-07-08T00:53:47;8.17;;;5.47;;
1999;SDS011;1001;48.87406500;9.59633600;2023-07-08T00:56:15;8.00;;;5.93;;
1999;SDS011;1001;48.87406500;9.59633600;2023-07-08T00:58:48;8.70;;;5.87;;
1999;SDS011;1001;48.87406500;9.59633600;2023-07-08T01:01:20;8.40;;;5.50;;
1999;SDS011;1001;48.87406500;9.59633600;2023-07-08T01:03:49;7.80;;;5.50;;
1999;SDS011;1001;48.87406500;9.59633600;2023-07-08T01:06:20;6.50;;;5.07;;
1999;SDS011;1001;48.87406500;9.59633600;2023-07-08T01:08:56;7.20;;;5.40;;
1999;SDS011;1001;48.87406500;9.59633600;2023-07-08T01:11:28;7.53;;;5.27;;
1999;SDS011;1001;48.87406500;9.59633600;2023-07-08T01:13:55;9.00;;;6.03;;
1999;SDS011;1001;48.87406500;9.59633600;2023-07-08T01:16:24;6.23;;;5.43;;
1999;SDS011;1001;48.87406500;9.59633600;2023-07-08T01:18:51;9.00;;;6.27;;
1999;SDS011;1001;48.87406500;9.59633600;2023-07-08T01:21:29;8.03;;;5.10;;
1999;SDS011;1001;48.87406500;9.59633600;2023-07-08T01:24:00;7.90;;;5.53;;
1999;SDS011;1001;48.87406500;9.59633600;2023-07-08T01:26:29;7.33;;;5.43;;
1999;SDS011;1001;48.87406500;9.59633600;2023-07-08T01:28:57;5.60;;;4.60;;
1999;SDS011;1001;48.87406500;9.59633600;2023-07-08T01:31:24;8.00;;;5.17;;
1999;SDS011;1001;48.87406500;9.59633600;2023-07-08T01:33:51;6.00;;;4.77;;
1999;SDS011;1001;48.87406500;9.59633600;2023-07-08T01:36:18;8.60;;;6.17;;
1999;SDS011;1001;48.87406500;9.59633600;2023-07-08T01:38:48;7.57;;;5.63;;
1999;SDS011;1001;48.87406500;9.59633600;2023-07-08T01:41:16;8.23;;;5.33;;
1999;SDS011;1001;48.87406500;9.59633600;2023-07-08T01:43:43;8.43;;;5.47;;
1999;SDS011;1001;48.87406500;9.59633600;2023-07-08T01:46:11;8.23;;;5.40;;
1999;SDS011;1001;48.87406500;9.59633600;2023-07-08T01:48:41;6.83;;;5.50;;
1999;SDS011;1001;48.87406500;9.59633600;2023-07-08T01:51:13;8.63;;;5.40;;
1999;SDS011;1001;48.87406500;9.59633600;2023-07-08T01:53:41;7.07;;;4.70;;
1999;SDS011;1001;48.87406500;9.59633600;2023-07-08T01:56:10;8.70;;;5.10;;
1999;SDS011;1001;48.87406500;9.59633600;2023-07-08T01:58:39;6.73;;;5.10;;
1999;SDS011;1001;48.87406500;9.59633600;2023-07-08T02:01:06;6.53;;;4.93;;
1999;SDS011;1001;48.87406500;9.59633600;2023-07-08T02:03:33;6.77;;;4.70;;
1999;SDS011;1001;48.87406500;9.59633600;2023-07-08T02:06:00;7.00;;;5.20;;
1999;SDS011;1001;48.87406500;9.59633600;2023-07-08T02:08:26;7.77;;;5.87;;
1999;SDS011;1001;48.87406500;9.59633600;2023-07-08T02:10:55;7.27;;;4.60;;
1999;SDS011;1001;48.87406500;9.59633600;2023-07-08T02:13:23;8.07;;;4.80;;
1999;SDS011;1001;48.87406500;9.59633600;2023-07-08T02:15:51;6.80;;;5.43;;
1999;SDS011;1001;48.87406500;9.59633600;2023-07-08T02:18:18;6.57;;;5.70;;
1999;SDS011;1001;48.87406500;9.59633600;2023-07-08T02:20:45;8.80;;;5.90;;
1999;SDS011;1001;48.87406500;9.59633600;2023-07-08T02:23:11;7.00;;;6.00;;
1999;SDS011;1001;48.87406500;9.59633600;2023-07-08T02:25:38;7.60;;;5.30;;
1999;SDS011;1001;48.87406500;9.59633600;2023-07-08T02:28:04;7.43;;;5.37;;
1999;SDS011;1001;48.87406500;9.59633600;2023-07-08T02:30:31;6.87;;;4.77;;
1999;SDS011;1001;48.87406500;9.59633600;2023-07-08T02:32:59;9.23;;;5.50;;
1999;SDS011;1001;48.87406500;9.59633600;2023-07-08T02:35:26;5.67;;;5.00;;
1999;SDS011;1001;48.87406500;9.59633600;2023-07-08T02:37:54;8.63;;;5.13;;
1999;SDS011;1001;48.87406500;9.59633600;2023-07-08T02:40:22;7.10;;;4.60;;
1999;SDS011;1001;48.87406500;9.59633600;2023-07-08T02:42:50;6.77;;;4.70;;
1999;SDS011;1001;48.87406500;9.59633600;2023-07-08T02:45:17;8.60;;;5.23;;
1999;SDS011;1001;48.87406500;9.59633600;2023-07-08T02:47:45;7.20;;;5.17;;
1999;SDS011;1001;48.87406500;9.59633600;2023-07-08T02:50:13;7.20;;;5.70;;
1999;SDS011;1001;48.87406500;9.59633600;2023-07-08T02:52:42;7.70;;;5.27;;
1999;SDS011;1001;48.87406500;9.59633600;2023-07-08T02:55:08;6.90;;;4.67;;
1999;SDS011;1001;48.87406500;9.59633600;2023-07-08T02:57:35;6.47;;;4.90;;
1999;SDS011;1001;48.87406500;9.59633600;2023-07-08T03:00:01;7.70;;;5.57;;
1999;SDS011;1001;48.87406500;9.59633600;2023-07-08T03:02:30;7.63;;;5.43;;
1999;SDS011;1001;48.87406500;9.59633600;2023-07-08T03:04:57;8.53;;;5.43;;
1999;SDS011;1001;48.87406500;9.59633600;2023-07-08T03:07:25;5.97;;;4.20;;
1999;SDS011;1001;48.87406500;9.59633600;2023-07-08T03:09:52;4.30;;;3.90;;
1999;SDS011;1001;48.87406500;9.59633600;2023-07-08T03:12:18;6.27;;;4.17;;
1999;SDS011;1001;48.87406500;9.59633600;2023-07-08T03:14:45;5.77;;;4.73;;
1999;SDS011;1001;48.87406500;9.59633600;2023-07-08T03:17:11;6.27;;;4.67;;
1999;SDS011;1001;48.87406500;9.59633600;2023-07-08T03:19:38;7.40;;;5.13;;
1999;SDS011;1001;48.87406500;9.59633600;2023-07-08T03:22:04;7.50;;;5.47;;
1999;SDS011;1001;48.87406500;9.59633600;2023-07-08T03:24:34;6.27;;;4.83;;
1999;SDS011;1001;48.87406500;9.59633600;2023-07-08T03:27:00;5.67;;;4.63;;
1999;SDS011;1001;48.87406500;9.59633600;2023-07-08T03:29:30;6.20;;;4.60;;
1999;SDS011;1001;48.87406500;9.59633600;2023-07-08T03:31:57;6.20;;;4.77;;
1999;SDS011;1001;48.87406500;9.59633600;2023-07-08T03:34:23;7.30;;;5.10;;
1999;SDS011;1001;48.87406500;9.59633600;2023-07-08T03:36:50;7.57;;;4.40;;
1999;SDS011;1001;48.87406500;9.59633600;2023-07-08T03:39:19;8.50;;;4.70;;
1999;SDS011;1001;48.87406500;9.59633600;2023-07-08T03:41:49;8.50;;;4.90;;
1999;SDS011;1001;48.87406500;9.59633600;2023-07-08T03:44:16;7.20;;;4.90;;
1999;SDS011;1001;48.87406500;9.59633600;2023-07-08T03:46:43;8.00;;;5.10;;
1999;SDS011;1001;48.87406500;9.59633600;2023-07-08T03:49:11;9.83;;;5.13;;
1999;SDS011;1001;48.87406500;9.59633600;2023-07-08T03:51:39;7.83;;;5.40;;
1999;SDS011;1001;48.87406500;9.59633600;2023-07-08T03:54:08;7.10;;;5.20;;
1999;SDS011;1001;48.87406500;9.59633600;2023-07-08T03:56:38;6.30;;;4.97;;
1999;SDS011;1001;48.87406500;9.59633600;2023-07-08T03:59:06;6.30;;;5.00;;
1999;SDS011;1001;48.87406500;9.59633600;2023-07-08T04:01:33;7.60;;;5.30;;
1999;SDS011;1001;48.87406500;9.59633600;2023-07-08T04:04:00;6.93;;;5.67;;
1999;SDS011;1001;48.87406500;9.59633600;2023-07-08T04:06:26;7.07;;;5.10;;
1999;SDS011;1001;48.87406500;9.59633600;2023-07-08T04:08:54;7.80;;;5.30;;
1999;SDS011;1001;48.87406500;9.59633600;2023-07-08T04:11:23;6.87;;;5.13;;
1999;SDS011;1001;48.87406500;9.59633600;2023-07-08T04:13:50;8.03;;;5.40;;
1999;SDS011;1001;48.87406500;9.59633600;2023-07-08T04:16:19;6.47;;;5.27;;
1999;SDS011;1001;48.87406500;9.59633600;2023-07-08T04:18:49;6.57;;;4.97;;
1999;SDS011;1001;48.87406500;9.59633600;2023-07-08T04:21:18;7.83;;;5.10;;
1999;SDS011;1001;48.87406500;9.59633600;2023-07-08T04:23:45;6.40;;;4.93;;
1999;SDS011;1001;48.87406500;9.59633600;2023-07-08T04:26:11;9.30;;;5.67;;
1999;SDS011;1001;48.87406500;9.59633600;2023-07-08T04:28:38;7.90;;;6.00;;
1999;SDS011;1001;48.87406500;9.59633600;2023-07-08T04:31:05;9.70;;;5.23;;
1999;SDS011;1001;48.87406500;9.59633600;2023-07-08T04:33:33;6.70;;;5.00;;
1999;SDS011;1001;48.87406500;9.59633600;2023-07-08T04:35:59;7.90;;;5.40;;
1999;SDS011;1001;48.87406500;9.59633600;2023-07-08T04:38:26;6.10;;;5.50;;
1999;SDS011;1001;48.87406500;9.59633600;2023-07-08T04:40:53;7.30;;;5.10;;
1999;SDS011;1001;48.87406500;9.59633600;2023-07-08T04:43:20;7.13;;;5.67;;
1999;SDS011;1001;48.87406500;9.59633600;2023-07-08T04:45:51;7.73;;;5.43;;
1999;SDS011;1001;48.87406500;9.59633600;2023-07-08T04:48:20;7.20;;;5.27;;
1999;SDS011;1001;48.87406500;9.59633600;2023-07-08T04:50:51;7.40;;;5.80;;
1999;SDS011;1001;48.87406500;9.59633600;2023-07-08T04:53:18;8.33;;;5.90;;
1999;SDS011;1001;48.87406500;9.59633600;2023-07-08T04:55:46;7.20;;;5.97;;
1999;SDS011;1001;48.87406500;9.59633600;2023-07-08T04:58:14;8.60;;;5.97;;
1999;SDS011;1001;48.87406500;9.59633600;2023-07-08T05:00:41;7.70;;;5.80;;
1999;SDS011;1001;48.87406500;9.59633600;2023-07-08T05:03:07;7.10;;;5.80;;
1999;SDS011;1001;48.87406500;9.59633600;2023-07-08T05:05:34;6.73;;;4.93;;
1999;SDS011;1001;48.87406500;9.59633600;2023-07-08T05:08:02;8.10;;;5.67;;
1999;SDS011;1001;48.87406500;9.59633600;2023-07-08T05:10:29;7.43;;;5.50;;
1999;SDS011;1001;48.87406500;9.59633600;2023-07-08T05:12:55;5.90;;;5.03;;
1999;SDS011;1001;48.87406500;9.59633600;2023-07-08T05:15:22;7.37;;;5.50;;
1999;SDS011;1001;48.87406500;9.59633600;2023-07-08T05:17:49;7.23;;;5.47;;
1999;SDS011;1001;48.87406500;9.59633600;2023-07-08T05:20:16;9.20;;;5.10;;
1999;SDS011;1001;48.87406500;9.59633600;2023-07-08T05:22:44;5.97;;;4.80;;
1999;SDS011;1001;48.87406500;9.59633600;2023-07-08T05:25:13;9.80;;;6.40;;
1999;SDS011;1001;48.87406500;9.59633600;2023-07-08T05:27:40;7.27;;;5.83;;
1999;SDS011;1001;48.87406500;9.59633600;2023-07-08T05:30:15;7.87;;;6.03;;
1999;SDS011;1001;48.87406500;9.59633600;2023-07-08T05:32:43;10.87;;;6.50;;
1999;SDS011;1001;48.87406500;9.59633600;2023-07-08T05:35:10;7.40;;;5.97;;
1999;SDS011;1001;48.87406500;9.59633600;2023-07-08T05:37:37;7.30;;;5.20;;
1999;SDS011;1001;48.87406500;9.59633600;2023-07-08T05:40:05;7.03;;;5.90;;
1999;SDS011;1001;48.87406500;9.59633600;2023-07-08T05:42:34;9.00;;;5.83;;
1999;SDS011;1001;48.87406500;9.59633600;2023-07-08T05:45:01;5.87;;;4.73;;
1999;SDS011;1001;48.87406500;9.59633600;2023-07-08T05:47:27;7.10;;;5.57;;
1999;SDS011;1001;48.87406500;9.59633600;2023-07-08T05:49:54;8.60;;;5.73;;
1999;SDS011;1001;48.87406500;9.59633600;2023-07-08T05:52:20;8.93;;;5.70;;
1999;SDS011;1001;48.87406500;9.59633600;2023-07-08T05:54:47;7.37;;;6.00;;
1999;SDS011;1001;48.87406500;9.59633600;2023-07-08T05:57:13;7.77;;;5.53;;
1999;SDS011;1001;48.87406500;9.59633600;2023-07-08T05:59:41;9.03;;;6.13;;
1999;SDS011;1001;48.87406500;9.59633600;2023-07-08T06:02:10;6.50;;;5.50;;
1999;SDS011;1001;48.87406500;9.59633600;2023-07-08T06:04:37;7.50;;;5.50;;
1999;SDS011;1001;48.87406500;9.59633600;2023-07-08T06:07:05;7.77;;;5.47;;
1999;SDS011;1001;48.87406500;9.59633600;2023-07-08T06:09:31;7.13;;;5.33;;
1999;SDS011;1001;48.87406500;9.59633600;2023-07-08T06:11:58;16.67;;;10.47;;
1999;SDS011;1001;48.87406500;9.59633600;2023-07-08T06:14:25;11.67;;;6.53;;
1999;SDS011;1001;48.87406500;9.59633600;2023-07-08T06:16:54;7.93;;;5.13;;
1999;SDS011;1001;48.87406500;9.59633600;2023-07-08T06:19:20;7.33;;;5.93;;
1999;SDS011;1001;48.87406500;9.59633600;2023-07-08T06:21:47;10.00;;;5.70;;
1999;SDS011;1001;48.87406500;9.59633600;2023-07-08T06:24:14;6.73;;;5.77;;
1999;SDS011;1001;48.87406500;9.59633600;2023-07-08T06:26:40;7.20;;;6.17;;
1999;SDS011;1001;48.87406500;9.59633600;2023-07-08T06:29:07;7.10;;;6.03;;
1999;SDS011;1001;48.87406500;9.59633600;2023-07-08T06:31:34;7.40;;;6.00;;
1999;SDS011;1001;48.87406500;9.59633600;2023-07-08T06:34:02;6.33;;;5.23;;
1999;SDS011;1001;48.87406500;9.59633600;2023-07-08T06:36:29;6.73;;;6.03;;
1999;SDS011;1001;48.87406500;9.59633600;2023-07-08T06:38:55;7.00;;;5.20;;
1999;SDS011;1001;48.87406500;9.59633600;2023-07-08T06:41:22;6.80;;;6.07;;
1999;SDS011;1001;48.87406500;9.59633600;2023-07-08T06:43:49;9.73;;;6.30;;
1999;SDS011;1001;48.87406500;9.59633600;2023-07-08T06:46:16;8.60;;;6.57;;
1999;SDS011;1001;48.87406500;9.59633600;2023-07-08T06:48:43;6.27;;;5.63;;
1999;SDS011;1001;48.87406500;9.59633600;2023-07-08T06:51:11;8.70;;;5.70;;
1999;SDS011;1001;48.87406500;9.59633600;2023-07-08T06:53:38;7.23;;;6.00;;
1999;SDS011;1001;48.87406500;9.59633600;2023-07-08T06:56:05;8.73;;;6.27;;
1999;SDS011;1001;48.87406500;9.59633600;2023-07-08T06:58:31;8.00;;;5.60;;
1999;SDS011;1001;48.87406500;9.59633600;2023-07-08T07:00:58;8.83;;;6.60;;
1999;SDS011;1001;48.87406500;9.59633600;2023-07-08T07:03:24;7.30;;;5.63;;
1999;SDS011;1001;48.87406500;9.59633600;2023-07-08T07:05:51;7.47;;;6.63;;
1999;SDS011;1001;48.87406500;9.59633600;2023-07-08T07:08:19;7.87;;;6.50;;
1999;SDS011;1001;48.87406500;9.59633600;2023-07-08T07:10:45;6.67;;;5.97;;
1999;SDS011;1001;48.87406500;9.59633600;2023-07-08T07:13:11;9.33;;;5.87;;
1999;SDS011;1001;48.87406500;9.59633600;2023-07-08T07:15:37;7.93;;;6.13;;
1999;SDS011;1001;48.87406500;9.59633600;2023-07-08T07:18:04;12.13;;;6.03;;
1999;SDS011;1001;48.87406500;9.59633600;2023-07-08T07:20:32;9.00;;;6.47;;
1999;SDS011;1001;48.87406500;9.59633600;2023-07-08T07:22:59;7.70;;;6.20;;
1999;SDS011;1001;48.87406500;9.59633600;2023-07-08T07:25:27;6.93;;;5.30;;
1999;SDS011;1001;48.87406500;9.59633600;2023-07-08T07:27:53;10.40;;;6.77;;
1999;SDS011;1001;48.87406500;9.59633600;2023-07-08T07:30:20;7.30;;;6.23;;
1999;SDS011;1001;48.87406500;9.59633600;2023-07-08T07:32:47;6.90;;;5.73;;
1999;SDS011;1001;48.87406500;9.59633600;2023-07-08T07:35:14;7.53;;;5.27;;
1999;SDS011;1001;48.87406500;9.59633600;2023-07-08T07:37:41;6.97;;;6.23;;
1999;SDS011;1001;48.87406500;9.59633600;2023-07-08T07:40:09;7.43;;;5.93;;
1999;SDS011;1001;48.87406500;9.59633600;2023-07-08T07:42:40;9.70;;;7.47;;
1999;SDS011;1001;48.87406500;9.59633600;2023-07-08T07:45:08;10.73;;;6.43;;
1999;SDS011;1001;48.87406500;9.59633600;2023-07-08T07:47:35;8.20;;;6.03;;
1999;SDS011;1001;48.87406500;9.59633600;2023-07-08T07:50:02;8.00;;;6.67;;
1999;SDS011;1001;48.87406500;9.59633600;2023-07-08T07:52:30;7.47;;;5.57;;
1999;SDS011;1001;48.87406500;9.59633600;2023-07-08T07:54:56;9.60;;;6.30;;
1999;SDS011;1001;48.87406500;9.59633600;2023-07-08T07:57:23;9.57;;;6.10;;
1999;SDS011;1001;48.87406500;9.59633600;2023-07-08T07:59:51;8.30;;;6.27;;
1999;SDS011;1001;48.87406500;9.59633600;2023-07-08T08:02:18;7.90;;;5.90;;
1999;SDS011;1001;48.87406500;9.59633600;2023-07-08T08:04:45;9.33;;;5.67;;
1999;SDS011;1001;48.87406500;9.59633600;2023-07-08T08:07:12;7.30;;;5.17;;
1999;SDS011;1001;48.87406500;9.59633600;2023-07-08T08:09:39;8.43;;;5.80;;
1999;SDS011;1001;48.87406500;9.59633600;2023-07-08T08:12:07;9.93;;;6.57;;
1999;SDS011;1001;48.87406500;9.59633600;2023-07-08T08:14:34;9.50;;;5.80;;
1999;SDS011;1001;48.87406500;9.59633600;2023-07-08T08:17:02;6.00;;;5.40;;
1999;SDS011;1001;48.87406500;9.59633600;2023-07-08T08:19:29;6.83;;;6.00;;
1999;SDS011;1001;48.87406500;9.59633600;2023-07-08T08:21:56;8.37;;;6.40;;
1999;SDS011;1001;48.87406500;9.59633600;2023-07-08T08:24:23;7.90;;;5.60;;
1999;SDS011;1001;48.87406500;9.59633600;2023-07-08T08:26:49;6.77;;;5.50;;
1999;SDS011;1001;48.87406500;9.59633600;2023-07-08T08:29:16;7.93;;;5.90;;
1999;SDS011;1001;48.87406500;9.59633600;2023-07-08T08:31:42;8.20;;;5.93;;
1999;SDS011;1001;48.87406500;9.59633600;2023-07-08T08:34:10;6.17;;;5.50;;
1999;SDS011;1001;48.87406500;9.59633600;2023-07-08T08:36:37;8.40;;;6.23;;
1999;SDS011;1001;48.87406500;9.59633600;2023-07-08T08:39:03;8.27;;;6.10;;
1999;SDS011;1001;48.87406500;9.59633600;2023-07-08T08:41:31;6.10;;;4.80;;
1999;SDS011;1001;48.87406500;9.59633600;2023-07-08T08:43:59;6.33;;;5.27;;
1999;SDS011;1001;48.87406500;9.59633600;2023-07-08T08:46:29;7.83;;;6.03;;
1999;SDS011;1001;48.87406500;9.59633600;2023-07-08T08:49:02;7.40;;;5.67;;
1999;SDS011;1001;48.87406500;9.59633600;2023-07-08T08:51:41;6.50;;;5.90;;
1999;SDS011;1001;48.87406500;9.59633600;2023-07-08T08:54:08;7.43;;;5.40;;
1999;SDS011;1001;48.87406500;9.59633600;2023-07-08T08:56:37;7.47;;;5.57;;
1999;SDS011;1001;48.87406500;9.59633600;2023-07-08T08:59:14;7.37;;;5.60;;
1999;SDS011;1001;48.87406500;9.59633600;2023-07-08T09:01:47;7.33;;;5.57;;
1999;SDS011;1001;48.87406500;9.59633600;2023-07-08T09:04:15;8.37;;;5.23;;
1999;SDS011;1001;48.87406500;9.59633600;2023-07-08T09:06:48;12.83;;;6.47;;
1999;SDS011;1001;48.87406500;9.59633600;2023-07-08T09:09:18;8.87;;;6.00;;
1999;SDS011;1001;48.87406500;9.59633600;2023-07-08T09:11:51;7.00;;;4.67;;
1999;SDS011;1001;48.87406500;9.59633600;2023-07-08T09:14:23;5.63;;;4.73;;
1999;SDS011;1001;48.87406500;9.59633600;2023-07-08T09:16:53;6.13;;;4.63;;
1999;SDS011;1001;48.87406500;9.59633600;2023-07-08T09:19:25;7.80;;;4.40;;
1999;SDS011;1001;48.87406500;9.59633600;2023-07-08T09:21:57;7.73;;;5.07;;
1999;SDS011;1001;48.87406500;9.59633600;2023-07-08T09:24:29;5.90;;;5.07;;
1999;SDS011;1001;48.87406500;9.59633600;2023-07-08T09:27:00;5.83;;;4.50;;
1999;SDS011;1001;48.87406500;9.59633600;2023-07-08T09:29:28;3.93;;;3.00;;
1999;SDS011;1001;48.87406500;9.59633600;2023-07-08T09:31:55;6.87;;;3.37;;
1999;SDS011;1001;48.87406500;9.59633600;2023-07-08T09:34:23;5.40;;;3.73;;
1999;SDS011;1001;48.87406500;9.59633600;2023-07-08T09:37:05;9.90;;;4.50;;
1999;SDS011;1001;48.87406500;9.59633600;2023-07-08T09:39:48;6.47;;;4.97;;
1999;SDS011;1001;48.87406500;9.59633600;2023-07-08T09:42:15;4.80;;;3.93;;
1999;SDS011;1001;48.87406500;9.59633600;2023-07-08T09:44:43;5.70;;;4.00;;
1999;SDS011;1001;48.87406500;9.59633600;2023-07-08T09:47:18;6.43;;;4.30;;
1999;SDS011;1001;48.87406500;9.59633600;2023-07-08T09:49:47;4.40;;;3.50;;
1999;SDS011;1001;48.87406500;9.59633600;2023-07-08T09:52:16;5.70;;;4.47;;
1999;SDS011;1001;48.87406500;9.59633600;2023-07-08T09:54:44;8.50;;;4.23;;
1999;SDS011;1001;48.87406500;9.59633600;2023-07-08T09:57:14;6.67;;;5.17;;
1999;SDS011;1001;48.87406500;9.59633600;2023-07-08T09:59:48;5.27;;;3.83;;
1999;SDS011;1001;48.87406500;9.59633600;2023-07-08T10:05:10;5.23;;;3.80;;
1999;SDS011;1001;48.87406500;9.59633600;2023-07-08T10:07:45;6.90;;;4.50;;
1999;SDS011;1001;48.87406500;9.59633600;2023-07-08T10:10:14;4.47;;;4.07;;
1999;SDS011;1001;48.87406500;9.59633600;2023-07-08T10:12:46;6.60;;;4.33;;
1999;SDS011;1001;48.87406500;9.59633600;2023-07-08T10:15:22;6.70;;;4.00;;
1999;SDS011;1001;48.87406500;9.59633600;2023-07-08T10:17:55;5.93;;;3.73;;
1999;SDS011;1001;48.87406500;9.59633600;2023-07-08T10:20:22;6.30;;;4.20;;
1999;SDS011;1001;48.87406500;9.59633600;2023-07-08T10:22:59;7.70;;;4.17;;
1999;SDS011;1001;48.87406500;9.59633600;2023-07-08T10:25:35;4.53;;;3.60;;
1999;SDS011;1001;48.87406500;9.59633600;2023-07-08T10:28:13;4.67;;;3.90;;
1999;SDS011;1001;48.87406500;9.59633600;2023-07-08T10:31:06;5.73;;;5.13;;
1999;SDS011;1001;48.87406500;9.59633600;2023-07-08T10:33:48;6.27;;;4.63;;
1999;SDS011;1001;48.87406500;9.59633600;2023-07-08T10:36:30;5.20;;;3.90;;
1999;SDS011;1001;48.87406500;9.59633600;2023-07-08T10:39:17;8.93;;;4.20;;
1999;SDS011;1001;48.87406500;9.59633600;2023-07-08T10:41:58;10.13;;;4.50;;
1999;SDS011;1001;48.87406500;9.59633600;2023-07-08T10:44:37;4.90;;;3.50;;
1999;SDS011;1001;48.87406500;9.59633600;2023-07-08T10:47:15;5.07;;;3.47;;
1999;SDS011;1001;48.87406500;9.59633600;2023-07-08T10:49:57;4.10;;;3.23;;
1999;SDS011;1001;48.87406500;9.59633600;2023-07-08T10:52:37;5.50;;;4.03;;
1999;SDS011;1001;48.87406500;9.59633600;2023-07-08T10:55:20;8.40;;;3.90;;
1999;SDS011;1001;48.87406500;9.59633600;2023-07-08T10:58:00;5.07;;;4.50;;
1999;SDS011;1001;48.87406500;9.59633600;2023-07-08T11:00:40;5.20;;;4.20;;
1999;SDS011;1001;48.87406500;9.59633600;2023-07-08T11:03:29;5.77;;;4.53;;
1999;SDS011;1001;48.87406500;9.59633600;2023-07-08T11:06:06;6.53;;;4.17;;
1999;SDS011;1001;48.87406500;9.59633600;2023-07-08T11:08:38;6.63;;;3.80;;
1999;SDS011;1001;48.87406500;9.59633600;2023-07-08T11:11:12;5.20;;;3.67;;
1999;SDS011;1001;48.87406500;9.59633600;2023-07-08T11:13:53;5.17;;;3.57;;
1999;SDS011;1001;48.87406500;9.59633600;2023-07-08T11:16:25;6.13;;;3.67;;
1999;SDS011;1001;48.87406500;9.59633600;2023-07-08T11:18:56;4.43;;;3.63;;
1999;SDS011;1001;48.87406500;9.59633600;2023-07-08T11:21:29;3.60;;;3.10;;
1999;SDS011;1001;48.87406500;9.59633600;2023-07-08T11:24:04;6.37;;;4.50;;
1999;SDS011;1001;48.87406500;9.59633600;2023-07-08T11:26:39;7.20;;;3.50;;
1999;SDS011;1001;48.87406500;9.59633600;2023-07-08T11:29:11;4.10;;;3.13;;
1999;SDS011;1001;48.87406500;9.59633600;2023-07-08T11:31:43;4.90;;;3.50;;
1999;SDS011;1001;48.87406500;9.59633600;2023-07-08T11:34:12;6.20;;;3.30;;
1999;SDS011;1001;48.87406500;9.59633600;2023-07-08T11:36:41;4.13;;;2.53;;
1999;SDS011;1001;48.87406500;9.59633600;2023-07-08T11:41:55;3.63;;;2.33;;
1999;SDS011;1001;48.87406500;9.59633600;2023-07-08T11:44:32;3.17;;;2.30;;
1999;SDS011;1001;48.87406500;9.59633600;2023-07-08T11:46:59;2.80;;;2.60;;
1999;SDS011;1001;48.87406500;9.59633600;2023-07-08T11:49:26;2.80;;;2.10;;
1999;SDS011;1001;48.87406500;9.59633600;2023-07-08T11:51:53;3.03;;;2.00;;
1999;SDS011;1001;48.87406500;9.59633600;2023-07-08T11:54:26;3.67;;;1.97;;
1999;SDS011;1001;48.87406500;9.59633600;2023-07-08T11:56:59;2.30;;;1.80;;
1999;SDS011;1001;48.87406500;9.59633600;2023-07-08T11:59:30;2.60;;;1.97;;
1999;SDS011;1001;48.87406500;9.59633600;2023-07-08T12:02:01;4.30;;;1.93;;
1999;SDS011;1001;48.87406500;9.59633600;2023-07-08T12:04:30;3.80;;;2.27;;
1999;SDS011;1001;48.87406500;9.59633600;2023-07-08T12:09:57;1.93;;;1.40;;
1999;SDS011;1001;48.87406500;9.59633600;2023-07-08T12:12:29;1.77;;;1.60;;
1999;SDS011;1001;48.87406500;9.59633600;2023-07-08T12:15:00;2.20;;;1.80;;
1999;SDS011;1001;48.87406500;9.59633600;2023-07-08T12:17:36;2.43;;;1.77;;
1999;SDS011;1001;48.87406500;9.59633600;2023-07-08T12:20:05;2.80;;;2.50;;
1999;SDS011;1001;48.87406500;9.59633600;2023-07-08T12:22:39;3.37;;;2.40;;
1999;SDS011;1001;48.87406500;9.59633600;2023-07-08T12:25:07;2.10;;;1.70;;
1999;SDS011;1001;48.87406500;9.59633600;2023-07-08T12:27:40;2.13;;;1.93;;
1999;SDS011;1001;48.87406500;9.59633600;2023-07-08T12:30:07;3.17;;;2.33;;
1999;SDS011;1001;48.87406500;9.59633600;2023-07-08T12:32:35;3.57;;;2.27;;
1999;SDS011;1001;48.87406500;9.59633600;2023-07-08T12:35:02;3.97;;;2.70;;
1999;SDS011;1001;48.87406500;9.59633600;2023-07-08T12:37:31;2.50;;;1.80;;
1999;SDS011;1001;48.87406500;9.59633600;2023-07-08T12:39:58;3.23;;;2.07;;
1999;SDS011;1001;48.87406500;9.59633600;2023-07-08T12:42:29;5.40;;;2.30;;
1999;SDS011;1001;48.87406500;9.59633600;2023-07-08T12:44:57;4.10;;;2.10;;
1999;SDS011;1001;48.87406500;9.59633600;2023-07-08T12:47:24;2.87;;;2.33;;
1999;SDS011;1001;48.87406500;9.59633600;2023-07-08T12:49:51;2.77;;;2.07;;
1999;SDS011;1001;48.87406500;9.59633600;2023-07-08T12:52:19;4.80;;;2.40;;
1999;SDS011;1001;48.87406500;9.59633600;2023-07-08T12:54:47;3.50;;;1.60;;
1999;SDS011;1001;48.87406500;9.59633600;2023-07-08T12:57:14;6.50;;;2.10;;
1999;SDS011;1001;48.87406500;9.59633600;2023-07-08T12:59:41;2.70;;;1.90;;
1999;SDS011;1001;48.87406500;9.59633600;2023-07-08T13:02:11;2.47;;;2.07;;
1999;SDS011;1001;48.87406500;9.59633600;2023-07-08T13:04:41;1.93;;;1.80;;
1999;SDS011;1001;48.87406500;9.59633600;2023-07-08T13:07:12;2.10;;;1.90;;
1999;SDS011;1001;48.87406500;9.59633600;2023-07-08T13:09:49;3.03;;;1.77;;
1999;SDS011;1001;48.87406500;9.59633600;2023-07-08T13:12:16;3.90;;;2.17;;
1999;SDS011;1001;48.87406500;9.59633600;2023-07-08T13:14:47;7.17;;;2.50;;
1999;SDS011;1001;48.87406500;9.59633600;2023-07-08T13:17:16;2.50;;;1.53;;
1999;SDS011;1001;48.87406500;9.59633600;2023-07-08T13:19:43;3.70;;;2.47;;
1999;SDS011;1001;48.87406500;9.59633600;2023-07-08T13:22:12;3.77;;;1.73;;
1999;SDS011;1001;48.87406500;9.59633600;2023-07-08T13:24:42;3.97;;;1.80;;
1999;SDS011;1001;48.87406500;9.59633600;2023-07-08T13:27:12;4.10;;;2.50;;
1999;SDS011;1001;48.87406500;9.59633600;2023-07-08T13:29:42;2.00;;;1.70;;
1999;SDS011;1001;48.87406500;9.59633600;2023-07-08T13:32:10;3.40;;;2.20;;